createdAt,value
2022-08-07T00:02:36.624Z,101289.41
2022-08-07T00:05:04.005Z,101285.41
2022-08-07T00:07:40.886Z,101283.00
2022-08-07T00:10:27.330Z,101287.97
2022-08-07T00:13:00.143Z,101293.38
2022-08-07T00:15:38.170Z,101285.44
2022-08-07T00:18:19.292Z,101290.97
2022-08-07T00:20:50.656Z,101293.66
2022-08-07T00:23:21.430Z,101292.66
2022-08-07T00:25:58.211Z,101284.53
2022-08-07T00:28:33.502Z,101297.22
2022-08-07T00:31:12.506Z,101303.03
2022-08-07T00:33:42.950Z,101296.78
2022-08-07T00:36:12.795Z,101299.03
2022-08-07T00:38:42.060Z,101297.75
2022-08-07T00:41:15.085Z,101305.28
2022-08-07T00:44:02.096Z,101317.38
2022-08-07T00:46:33.234Z,101310.66
2022-08-07T00:49:04.721Z,101314.91
2022-08-07T00:51:58.210Z,101315.75
2022-08-07T00:54:23.221Z,101313.09
2022-08-07T00:56:53.286Z,101313.81
2022-08-07T00:59:35.459Z,101317.59
2022-08-07T01:02:08.920Z,101318.84
2022-08-07T01:04:44.737Z,101309.63
2022-08-07T01:07:14.280Z,101316.63
2022-08-07T01:10:07.011Z,101311.34
2022-08-07T01:12:32.132Z,101327.41
2022-08-07T01:15:04.029Z,101319.16
2022-08-07T01:17:34.387Z,101323.44
2022-08-07T01:20:08.613Z,101336.38
2022-08-07T01:22:47.057Z,101344.00
2022-08-07T01:25:53.778Z,101334.91
2022-08-07T01:28:18.140Z,101344.97
2022-08-07T01:30:48.701Z,101350.63
2022-08-07T01:33:22.593Z,101346.34
2022-08-07T01:36:06.012Z,101345.34
2022-08-07T01:38:40.131Z,101346.00
2022-08-07T01:41:25.843Z,101350.38
2022-08-07T01:43:56.699Z,101346.72
2022-08-07T01:46:26.999Z,101351.09
2022-08-07T01:48:56.691Z,101340.19
2022-08-07T01:52:01.498Z,101349.97
2022-08-07T01:54:33.003Z,101346.31
2022-08-07T01:57:24.615Z,101347.75
2022-08-07T01:59:59.239Z,101344.19
2022-08-07T02:03:18.899Z,101350.59
2022-08-07T02:05:47.942Z,101347.00
2022-08-07T02:08:27.408Z,101347.16
2022-08-07T02:10:59.873Z,101342.88
2022-08-07T02:13:56.752Z,101351.72
2022-08-07T02:16:28.600Z,101346.16
2022-08-07T02:19:05.470Z,101348.84
2022-08-07T02:21:56.587Z,101352.56
2022-08-07T02:24:29.362Z,101356.00
2022-08-07T02:27:01.491Z,101354.25
2022-08-07T02:29:34.391Z,101367.91
2022-08-07T02:32:06.951Z,101354.41
2022-08-07T02:34:48.985Z,101362.75
2022-08-07T02:37:23.482Z,101361.34
2022-08-07T02:40:02.099Z,101364.25
2022-08-07T02:42:49.162Z,101361.19
2022-08-07T02:45:58.102Z,101362.50
2022-08-07T02:48:10.168Z,101352.88
2022-08-07T02:50:44.012Z,101361.69
2022-08-07T02:53:16.759Z,101355.31
2022-08-07T02:56:03.934Z,101359.31
2022-08-07T02:58:39.791Z,101360.13
2022-08-07T03:01:35.470Z,101362.44
2022-08-07T03:04:14.016Z,101363.53
2022-08-07T03:06:46.000Z,101363.28
2022-08-07T03:09:44.737Z,101364.97
2022-08-07T03:12:21.643Z,101364.19
2022-08-07T03:14:57.382Z,101366.13
2022-08-07T03:17:36.303Z,101369.28
2022-08-07T03:20:21.885Z,101360.91
2022-08-07T03:22:54.262Z,101371.16
2022-08-07T03:25:24.060Z,101365.25
2022-08-07T03:28:09.454Z,101371.84
2022-08-07T03:31:12.943Z,101371.31
2022-08-07T03:33:45.543Z,101372.63
2022-08-07T03:36:20.580Z,101377.47
2022-08-07T03:38:59.175Z,101381.47
2022-08-07T03:41:42.504Z,101382.94
2022-08-07T03:44:21.596Z,101384.09
2022-08-07T03:47:11.412Z,101375.44
2022-08-07T03:49:52.657Z,101378.63
2022-08-07T03:52:29.122Z,101383.19
2022-08-07T03:55:07.077Z,101381.78
2022-08-07T03:58:34.862Z,101383.22
2022-08-07T04:00:36.401Z,101381.53
2022-08-07T04:03:07.406Z,101382.97
2022-08-07T04:05:42.520Z,101384.13
2022-08-07T04:08:21.784Z,101383.59
2022-08-07T04:12:23.691Z,101391.84
2022-08-07T04:14:33.286Z,101385.00
2022-08-07T04:16:37.666Z,101387.00
2022-08-07T04:19:15.077Z,101388.16
2022-08-07T04:22:05.474Z,101390.31
2022-08-07T04:24:44.361Z,101395.84
2022-08-07T04:27:25.329Z,101397.28
2022-08-07T04:30:01.914Z,101398.44
2022-08-07T04:32:44.909Z,101399.84
2022-08-07T04:35:20.084Z,101401.28
2022-08-07T04:38:03.703Z,101409.00
2022-08-07T04:40:43.834Z,101409.00
2022-08-07T04:44:12.082Z,101405.00
2022-08-07T04:46:51.334Z,101407.00
2022-08-07T04:49:57.534Z,101406.13
2022-08-07T04:52:38.455Z,101405.53
2022-08-07T04:58:14.159Z,101405.78
2022-08-07T04:58:49.788Z,101419.47
2022-08-07T05:01:29.928Z,101413.34
2022-08-07T05:04:12.418Z,101418.00
2022-08-07T05:06:58.341Z,101419.84
2022-08-07T05:09:45.660Z,101414.53
2022-08-07T05:12:27.169Z,101411.06
2022-08-07T05:15:23.423Z,101408.31
2022-08-07T05:18:06.168Z,101412.56
2022-08-07T05:20:43.061Z,101410.81
2022-08-07T05:23:18.019Z,101412.75
2022-08-07T05:26:13.890Z,101412.56
2022-08-07T05:28:48.478Z,101408.25
2022-08-07T05:31:20.062Z,101424.13
2022-08-07T05:34:01.064Z,101427.81
2022-08-07T05:36:36.051Z,101426.47
2022-08-07T05:40:16.858Z,101435.72
2022-08-07T05:42:12.505Z,101439.38
2022-08-07T05:44:52.869Z,101445.72
2022-08-07T05:47:38.217Z,101445.63
2022-08-07T05:50:26.518Z,101443.69
2022-08-07T05:52:56.845Z,101445.84
2022-08-07T05:56:02.093Z,101446.78
2022-08-07T05:58:17.728Z,101449.41
2022-08-07T06:01:08.492Z,101447.59
2022-08-07T06:03:53.967Z,101453.81
2022-08-07T06:06:32.509Z,101448.44
2022-08-07T06:09:05.986Z,101445.06
2022-08-07T06:11:39.602Z,101436.09
2022-08-07T06:14:12.182Z,101444.84
2022-08-07T06:16:50.409Z,101435.53
2022-08-07T06:19:47.861Z,101442.03
2022-08-07T06:22:22.965Z,101442.22
2022-08-07T06:25:05.226Z,101445.34
2022-08-07T06:28:00.412Z,101446.22
2022-08-07T06:30:35.302Z,101449.81
2022-08-07T06:33:16.836Z,101446.44
2022-08-07T06:36:12.104Z,101450.91
2022-08-07T06:38:58.688Z,101450.94
2022-08-07T06:42:02.509Z,101450.78
2022-08-07T06:44:50.859Z,101455.75
2022-08-07T06:47:23.603Z,101455.41
2022-08-07T06:49:58.912Z,101461.88
2022-08-07T06:52:39.160Z,101462.38
2022-08-07T06:55:31.951Z,101467.00
2022-08-07T06:58:11.084Z,101468.00
2022-08-07T07:00:52.781Z,101470.22
2022-08-07T07:03:26.454Z,101483.19
2022-08-07T07:06:11.308Z,101476.53
2022-08-07T07:08:46.422Z,101471.41
2022-08-07T07:12:08.138Z,101468.66
2022-08-07T07:14:09.840Z,101475.28
2022-08-07T07:16:49.871Z,101478.69
2022-08-07T07:19:54.594Z,101482.31
2022-08-07T07:22:36.279Z,101479.03
2022-08-07T07:25:14.139Z,101489.91
2022-08-07T07:28:07.725Z,101481.25
2022-08-07T07:31:01.459Z,101483.56
2022-08-07T07:33:34.234Z,101474.81
2022-08-07T07:36:12.755Z,101480.09
2022-08-07T07:38:46.179Z,101471.94
2022-08-07T07:41:19.176Z,101479.75
2022-08-07T07:44:14.130Z,101484.13
2022-08-07T07:46:54.478Z,101483.81
2022-08-07T07:50:33.878Z,101479.75
2022-08-07T07:52:23.541Z,101478.72
2022-08-07T07:54:53.066Z,101481.44
2022-08-07T07:57:43.846Z,101483.13
2022-08-07T08:00:20.951Z,101488.28
2022-08-07T08:03:06.215Z,101487.69
2022-08-07T08:05:51.003Z,101494.38
2022-08-07T08:08:36.340Z,101488.75
2022-08-07T08:11:16.631Z,101489.28
2022-08-07T08:13:58.138Z,101491.00
2022-08-07T08:16:35.021Z,101484.34
2022-08-07T08:19:18.131Z,101489.28
2022-08-07T08:22:16.046Z,101492.66
2022-08-07T08:25:19.124Z,101489.94
2022-08-07T08:28:03.675Z,101493.69
2022-08-07T08:30:37.442Z,101496.88
2022-08-07T08:33:17.127Z,101491.38
2022-08-07T08:35:50.610Z,101485.34
2022-08-07T08:38:29.389Z,101482.59
2022-08-07T08:41:07.200Z,101485.47
2022-08-07T08:43:55.894Z,101482.84
2022-08-07T08:46:38.854Z,101484.13
2022-08-07T08:49:15.652Z,101481.81
2022-08-07T08:52:14.145Z,101486.47
2022-08-07T08:54:49.250Z,101492.59
2022-08-07T08:57:30.331Z,101491.66
2022-08-07T09:00:06.629Z,101497.97
2022-08-07T09:02:49.742Z,101494.50
2022-08-07T09:05:39.211Z,101497.53
2022-08-07T09:08:28.442Z,101499.72
2022-08-07T09:11:08.155Z,101500.28
2022-08-07T09:13:47.757Z,101497.59
2022-08-07T09:16:30.515Z,101494.66
2022-08-07T09:19:44.710Z,101492.50
2022-08-07T09:24:33.192Z,101486.28
2022-08-07T09:25:26.098Z,101491.53
2022-08-07T09:28:04.134Z,101488.88
2022-08-07T09:30:58.115Z,101494.22
2022-08-07T09:33:57.209Z,101497.09
2022-08-07T09:36:37.338Z,101496.50
2022-08-07T09:39:54.696Z,101501.19
2022-08-07T09:42:32.986Z,101501.81
2022-08-07T09:47:25.742Z,101502.59
2022-08-07T09:48:20.363Z,101497.88
2022-08-07T09:52:10.725Z,101494.13
2022-08-07T09:54:08.455Z,101493.44
2022-08-07T09:57:13.136Z,101487.47
2022-08-07T10:00:03.368Z,101489.38
2022-08-07T10:04:06.979Z,101483.47
2022-08-07T10:06:35.647Z,101489.16
2022-08-07T10:09:23.780Z,101482.41
2022-08-07T10:12:21.753Z,101480.31
2022-08-07T10:15:15.122Z,101469.94
2022-08-07T10:18:03.233Z,101478.94
2022-08-07T10:20:45.737Z,101479.66
2022-08-07T10:24:05.381Z,101478.91
2022-08-07T10:26:51.669Z,101489.63
2022-08-07T10:29:51.547Z,101491.00
2022-08-07T10:32:35.841Z,101495.38
2022-08-07T10:35:55.036Z,101496.66
2022-08-07T10:38:48.636Z,101485.63
2022-08-07T10:41:46.865Z,101492.66
2022-08-07T10:44:28.738Z,101488.88
2022-08-07T10:47:26.581Z,101478.63
2022-08-07T10:50:10.287Z,101482.66
2022-08-07T10:52:53.807Z,101479.53
2022-08-07T10:55:38.068Z,101480.47
2022-08-07T10:58:25.062Z,101474.31
2022-08-07T11:01:22.146Z,101475.59
2022-08-07T11:04:16.932Z,101470.13
2022-08-07T11:06:58.702Z,101457.81
2022-08-07T11:10:08.796Z,101463.63
2022-08-07T11:12:32.349Z,101464.84
2022-08-07T11:15:14.658Z,101461.72
2022-08-07T11:17:53.898Z,101459.09
2022-08-07T11:20:27.848Z,101457.47
2022-08-07T11:23:04.744Z,101459.28
2022-08-07T11:25:42.523Z,101454.66
2022-08-07T11:28:25.148Z,101459.56
2022-08-07T11:31:01.087Z,101459.56
2022-08-07T11:33:59.140Z,101464.78
2022-08-07T11:36:45.145Z,101457.31
2022-08-07T11:40:00.727Z,101463.91
2022-08-07T11:42:40.532Z,101465.59
2022-08-07T11:45:23.760Z,101457.19
2022-08-07T11:48:29.569Z,101467.31
2022-08-07T11:51:44.749Z,101468.59
2022-08-07T11:54:31.866Z,101473.25
2022-08-07T11:57:14.060Z,101469.25
2022-08-07T12:00:12.421Z,101472.78
2022-08-07T12:03:44.633Z,101471.28
2022-08-07T12:06:39.596Z,101476.13
2022-08-07T12:09:23.527Z,101475.69
2022-08-07T12:12:10.647Z,101470.44
2022-08-07T12:14:53.778Z,101478.53
2022-08-07T12:17:34.292Z,101466.81
2022-08-07T12:20:30.038Z,101467.88
2022-08-07T12:23:37.112Z,101465.81
2022-08-07T12:26:28.994Z,101457.38
2022-08-07T12:29:11.208Z,101461.81
2022-08-07T12:31:53.291Z,101445.59
2022-08-07T12:34:33.110Z,101447.88
2022-08-07T12:37:08.697Z,101448.53
2022-08-07T12:39:50.750Z,101444.94
2022-08-07T12:42:28.047Z,101442.97
2022-08-07T12:45:00.268Z,101441.16
2022-08-07T12:47:43.003Z,101442.69
2022-08-07T12:50:38.371Z,101435.50
2022-08-07T12:53:17.736Z,101436.16
2022-08-07T12:56:02.154Z,101432.28
2022-08-07T12:58:39.454Z,101433.63
2022-08-07T13:01:19.856Z,101426.66
2022-08-07T13:04:04.891Z,101430.50
2022-08-07T13:07:09.626Z,101425.09
2022-08-07T13:10:39.655Z,101434.19
2022-08-07T13:13:48.016Z,101429.97
2022-08-07T13:16:24.032Z,101425.38
2022-08-07T13:19:04.341Z,101432.34
2022-08-07T13:21:57.577Z,101429.91
2022-08-07T13:24:43.865Z,101415.88
2022-08-07T13:28:05.890Z,101428.88
2022-08-07T13:30:19.400Z,101431.97
2022-08-07T13:33:46.087Z,101423.91
2022-08-07T13:36:09.974Z,101423.03
2022-08-07T13:38:57.079Z,101423.03
2022-08-07T13:41:41.540Z,101417.22
2022-08-07T13:44:13.658Z,101422.06
2022-08-07T13:46:49.373Z,101427.53
2022-08-07T13:50:33.063Z,101431.34
2022-08-07T13:52:32.039Z,101417.56
2022-08-07T13:55:01.216Z,101420.41
2022-08-07T13:57:38.390Z,101420.22
2022-08-07T14:00:26.246Z,101421.72
2022-08-07T14:02:59.999Z,101430.41
2022-08-07T14:05:38.128Z,101423.25
2022-08-07T14:08:09.285Z,101428.06
2022-08-07T14:10:43.614Z,101419.06
2022-08-07T14:13:18.095Z,101418.31
2022-08-07T14:15:57.054Z,101416.25
2022-08-07T14:18:30.998Z,101415.31
2022-08-07T14:21:21.123Z,101412.66
2022-08-07T14:24:03.586Z,101414.66
2022-08-07T14:26:39.069Z,101414.53
2022-08-07T14:30:09.377Z,101406.81
2022-08-07T14:32:08.113Z,101408.13
2022-08-07T14:34:46.186Z,101405.66
2022-08-07T14:37:17.962Z,101401.06
2022-08-07T14:40:15.804Z,101406.16
2022-08-07T14:48:28.730Z,101407.84
2022-08-07T14:51:05.402Z,101409.19
2022-08-07T14:54:05.697Z,101411.75
2022-08-07T14:56:32.166Z,101407.28
2022-08-07T14:59:14.073Z,101403.88
2022-08-07T15:01:58.612Z,101400.59
2022-08-07T15:04:29.331Z,101405.03
2022-08-07T15:07:02.672Z,101401.72
2022-08-07T15:09:59.153Z,101403.22
2022-08-07T15:12:36.580Z,101405.22
2022-08-07T15:15:17.374Z,101404.56
2022-08-07T15:17:58.588Z,101402.75
2022-08-07T15:20:55.745Z,101405.88
2022-08-07T15:25:02.827Z,101396.19
2022-08-07T15:26:28.820Z,101395.38
2022-08-07T15:30:09.566Z,101398.13
2022-08-07T15:31:57.774Z,101397.47
2022-08-07T15:34:35.138Z,101390.88
2022-08-07T15:37:08.478Z,101391.97
2022-08-07T15:39:57.011Z,101388.16
2022-08-07T15:42:52.602Z,101397.28
2022-08-07T15:45:56.312Z,101395.53
2022-08-07T15:48:33.638Z,101397.22
2022-08-07T15:51:11.791Z,101395.59
2022-08-07T15:53:52.770Z,101391.59
2022-08-07T15:56:33.394Z,101395.53
2022-08-07T15:59:05.682Z,101400.16
2022-08-07T16:01:38.475Z,101393.78
2022-08-07T16:04:14.588Z,101396.13
2022-08-07T16:06:50.669Z,101401.63
2022-08-07T16:09:41.113Z,101399.47
2022-08-07T16:12:28.642Z,101400.25
2022-08-07T16:15:08.451Z,101400.66
2022-08-07T16:18:09.526Z,101398.25
2022-08-07T16:22:01.652Z,101395.19
2022-08-07T16:23:58.584Z,101390.88
2022-08-07T16:26:59.477Z,101386.41
2022-08-07T16:30:10.657Z,101392.81
2022-08-07T16:32:46.238Z,101389.88
2022-08-07T16:35:56.858Z,101391.34
2022-08-07T16:39:01.279Z,101389.47
2022-08-07T16:42:21.525Z,101392.25
2022-08-07T16:45:15.338Z,101401.81
2022-08-07T16:48:23.176Z,101392.16
2022-08-07T16:51:20.630Z,101396.53
2022-08-07T16:54:19.461Z,101397.25
2022-08-07T16:57:03.834Z,101395.22
2022-08-07T16:59:47.101Z,101393.31
2022-08-07T17:02:53.632Z,101396.06
2022-08-07T17:06:19.876Z,101391.44
2022-08-07T17:09:08.694Z,101392.63
2022-08-07T17:12:05.360Z,101403.00
2022-08-07T17:14:34.292Z,101399.59
2022-08-07T17:17:12.135Z,101400.94
2022-08-07T17:20:02.178Z,101402.72
2022-08-07T17:22:38.629Z,101401.16
2022-08-07T17:25:20.128Z,101409.09
2022-08-07T17:28:19.738Z,101407.03
2022-08-07T17:31:15.699Z,101412.25
2022-08-07T17:34:15.212Z,101405.63
2022-08-07T17:36:58.136Z,101402.81
2022-08-07T17:39:58.861Z,101412.81
2022-08-07T17:42:58.652Z,101414.03
2022-08-07T17:45:35.096Z,101418.28
2022-08-07T17:48:10.322Z,101415.38
2022-08-07T17:51:01.686Z,101407.69
2022-08-07T17:54:01.312Z,101420.03
2022-08-07T17:56:36.215Z,101420.91
2022-08-07T17:59:25.361Z,101422.81
2022-08-07T18:02:11.922Z,101420.28
2022-08-07T18:04:53.093Z,101423.72
2022-08-07T18:07:44.851Z,101422.00
2022-08-07T18:10:31.937Z,101420.09
2022-08-07T18:13:40.447Z,101422.47
2022-08-07T18:16:33.428Z,101422.97
2022-08-07T18:21:10.554Z,101427.75
2022-08-07T18:22:11.294Z,101421.13
2022-08-07T18:24:51.181Z,101431.09
2022-08-07T18:27:50.540Z,101435.19
2022-08-07T18:30:36.664Z,101430.06
2022-08-07T18:33:35.941Z,101434.34
2022-08-07T18:36:16.015Z,101431.00
2022-08-07T18:40:08.770Z,101425.38
2022-08-07T18:42:12.843Z,101430.28
2022-08-07T18:48:01.170Z,101433.16
2022-08-07T18:50:58.883Z,101430.16
2022-08-07T18:53:48.767Z,101430.16
2022-08-07T18:56:37.648Z,101429.88
2022-08-07T18:59:47.917Z,101429.88
2022-08-07T19:02:33.198Z,101438.16
2022-08-07T19:05:15.738Z,101428.66
2022-08-07T19:07:58.654Z,101433.09
2022-08-07T19:10:49.448Z,101436.13
2022-08-07T19:13:27.453Z,101443.25
2022-08-07T19:16:43.662Z,101442.31
2022-08-07T19:19:01.618Z,101449.69
2022-08-07T19:21:47.965Z,101454.28
2022-08-07T19:24:32.340Z,101446.56
2022-08-07T19:28:58.533Z,101453.94
2022-08-07T19:31:03.464Z,101451.13
2022-08-07T19:32:59.771Z,101459.47
2022-08-07T19:35:33.264Z,101454.97
2022-08-07T19:38:15.939Z,101457.97
2022-08-07T19:40:50.675Z,101460.88
2022-08-07T19:43:43.670Z,101464.69
2022-08-07T19:46:12.638Z,101466.41
2022-08-07T19:48:54.653Z,101467.38
2022-08-07T19:51:51.701Z,101467.44
2022-08-07T19:54:31.938Z,101465.69
2022-08-07T19:58:01.028Z,101462.00
2022-08-07T20:00:03.579Z,101462.41
2022-08-07T20:02:52.308Z,101474.00
2022-08-07T20:05:28.700Z,101472.41
2022-08-07T20:08:01.402Z,101477.06
2022-08-07T20:10:54.611Z,101468.22
2022-08-07T20:13:32.067Z,101471.34
2022-08-07T20:16:03.501Z,101477.09
2022-08-07T20:18:34.958Z,101471.72
2022-08-07T20:21:14.419Z,101482.69
2022-08-07T20:23:54.817Z,101478.69
2022-08-07T20:26:32.468Z,101486.00
2022-08-07T20:29:47.237Z,101486.53
2022-08-07T20:32:04.685Z,101486.47
2022-08-07T20:34:50.343Z,101487.53
2022-08-07T20:37:29.927Z,101486.00
2022-08-07T20:40:05.325Z,101483.56
2022-08-07T20:42:58.043Z,101490.63
2022-08-07T20:45:33.771Z,101500.19
2022-08-07T20:48:29.570Z,101503.47
2022-08-07T20:51:01.588Z,101501.66
2022-08-07T20:54:02.268Z,101500.41
2022-08-07T20:56:26.336Z,101501.56
2022-08-07T20:58:59.759Z,101501.59
2022-08-07T21:01:45.464Z,101499.94
2022-08-07T21:04:24.252Z,101499.19
2022-08-07T21:06:58.124Z,101504.66
2022-08-07T21:09:52.677Z,101500.69
2022-08-07T21:12:31.415Z,101501.72
2022-08-07T21:15:03.312Z,101495.06
2022-08-07T21:18:02.307Z,101491.91
2022-08-07T21:20:30.004Z,101496.53
2022-08-07T21:23:08.491Z,101498.28
2022-08-07T21:26:05.115Z,101496.63
2022-08-07T21:28:48.786Z,101502.41
2022-08-07T21:32:42.089Z,101501.59
2022-08-07T21:34:31.998Z,101502.72
2022-08-07T21:37:02.001Z,101486.00
2022-08-07T21:39:45.398Z,101488.22
2022-08-07T21:42:43.027Z,101496.88
2022-08-07T21:46:08.842Z,101489.97
2022-08-07T21:48:28.281Z,101492.03
2022-08-07T21:51:20.049Z,101498.78
2022-08-07T21:53:56.659Z,101493.91
2022-08-07T21:56:47.112Z,101499.25
2022-08-07T22:00:05.511Z,101498.06
2022-08-07T22:02:42.714Z,101496.75
2022-08-07T22:05:43.970Z,101496.47
2022-08-07T22:08:07.199Z,101485.88
2022-08-07T22:10:42.147Z,101491.56
2022-08-07T22:13:16.161Z,101496.13
2022-08-07T22:16:42.751Z,101494.38
2022-08-07T22:18:46.207Z,101493.91
2022-08-07T22:21:20.441Z,101496.63
2022-08-07T22:23:54.594Z,101495.66
2022-08-07T22:26:30.611Z,101494.13
2022-08-07T22:29:08.960Z,101492.50
2022-08-07T22:31:59.889Z,101494.34
2022-08-07T22:34:53.986Z,101496.38
2022-08-07T22:38:01.923Z,101489.69
2022-08-07T22:40:29.778Z,101493.16
2022-08-07T22:43:03.152Z,101493.56
2022-08-07T22:46:40.544Z,101487.56
2022-08-07T22:49:06.556Z,101488.00
2022-08-07T22:51:52.176Z,101494.03
2022-08-07T22:54:48.989Z,101493.50
2022-08-07T22:57:43.572Z,101493.75
2022-08-07T23:00:19.211Z,101497.84
2022-08-07T23:03:14.270Z,101492.72
2022-08-07T23:06:16.651Z,101491.88
2022-08-07T23:10:03.514Z,101492.44
2022-08-07T23:12:32.824Z,101493.28
2022-08-07T23:15:21.881Z,101499.22
2022-08-07T23:18:25.800Z,101492.88
2022-08-07T23:21:16.207Z,101500.63
2022-08-07T23:24:11.903Z,101489.91
2022-08-07T23:27:01.288Z,101492.88
2022-08-07T23:30:38.438Z,101494.03
2022-08-07T23:34:24.005Z,101493.03
2022-08-07T23:35:51.305Z,101501.22
2022-08-07T23:38:42.782Z,101500.59
2022-08-07T23:41:33.330Z,101489.91
2022-08-07T23:44:29.803Z,101500.13
2022-08-07T23:47:29.702Z,101491.28
2022-08-07T23:50:18.096Z,101492.19
2022-08-07T23:53:06.777Z,101493.41
2022-08-07T23:55:52.748Z,101502.91
2022-08-07T23:58:27.737Z,101514.38
